sensor_id;sensor_type;location;lat;lon;timestamp;temperature;humidity
43143;DHT22;28750;59.842;17.584;2022-12-07T00:01:31;-5.50;99.90
43143;DHT22;28750;59.842;17.584;2022-12-07T00:03:59;-5.60;99.90
43143;DHT22;28750;59.842;17.584;2022-12-07T00:06:31;-5.70;99.90
43143;DHT22;28750;59.842;17.584;2022-12-07T00:08:58;-5.70;99.90
43143;DHT22;28750;59.842;17.584;2022-12-07T00:11:25;-5.70;99.90
43143;DHT22;28750;59.842;17.584;2022-12-07T00:13:55;-5.60;99.90
43143;DHT22;28750;59.842;17.584;2022-12-07T00:16:26;-5.60;99.90
43143;DHT22;28750;59.842;17.584;2022-12-07T00:18:53;-5.50;99.90
43143;DHT22;28750;59.842;17.584;2022-12-07T00:21:26;-5.80;99.90
43143;DHT22;28750;59.842;17.584;2022-12-07T00:23:54;-5.80;99.90
43143;DHT22;28750;59.842;17.584;2022-12-07T00:26:25;-5.70;99.90
43143;DHT22;28750;59.842;17.584;2022-12-07T00:28:56;-5.80;99.90
43143;DHT22;28750;59.842;17.584;2022-12-07T00:31:26;-5.90;99.90
43143;DHT22;28750;59.842;17.584;2022-12-07T00:33:53;-6.00;99.90
43143;DHT22;28750;59.842;17.584;2022-12-07T00:36:22;-6.00;99.90
43143;DHT22;28750;59.842;17.584;2022-12-07T00:38:49;-5.90;99.90
43143;DHT22;28750;59.842;17.584;2022-12-07T00:41:21;-5.80;99.90
43143;DHT22;28750;59.842;17.584;2022-12-07T00:43:50;-5.70;99.90
43143;DHT22;28750;59.842;17.584;2022-12-07T00:46:18;-5.80;99.90
43143;DHT22;28750;59.842;17.584;2022-12-07T00:48:46;-5.90;99.90
43143;DHT22;28750;59.842;17.584;2022-12-07T00:51:15;-5.90;99.90
43143;DHT22;28750;59.842;17.584;2022-12-07T00:53:42;-5.80;99.90
43143;DHT22;28750;59.842;17.584;2022-12-07T00:56:13;-5.70;99.90
43143;DHT22;28750;59.842;17.584;2022-12-07T00:58:40;-5.60;99.90
43143;DHT22;28750;59.842;17.584;2022-12-07T01:01:09;-5.80;99.90
43143;DHT22;28750;59.842;17.584;2022-12-07T01:03:37;-6.00;99.90
43143;DHT22;28750;59.842;17.584;2022-12-07T01:06:05;-6.00;99.90
43143;DHT22;28750;59.842;17.584;2022-12-07T01:08:32;-6.00;99.90
43143;DHT22;28750;59.842;17.584;2022-12-07T01:11:01;-6.00;99.90
43143;DHT22;28750;59.842;17.584;2022-12-07T01:13:29;-6.00;99.90
43143;DHT22;28750;59.842;17.584;2022-12-07T01:16:00;-6.00;99.90
43143;DHT22;28750;59.842;17.584;2022-12-07T01:18:29;-6.00;99.90
43143;DHT22;28750;59.842;17.584;2022-12-07T01:21:09;-5.90;99.90
43143;DHT22;28750;59.842;17.584;2022-12-07T01:23:37;-5.90;99.90
43143;DHT22;28750;59.842;17.584;2022-12-07T01:26:07;-5.80;99.90
43143;DHT22;28750;59.842;17.584;2022-12-07T01:28:34;-5.80;99.90
43143;DHT22;28750;59.842;17.584;2022-12-07T01:31:07;-5.80;99.90
43143;DHT22;28750;59.842;17.584;2022-12-07T01:33:38;-5.80;99.90
43143;DHT22;28750;59.842;17.584;2022-12-07T01:36:17;-6.00;99.90
43143;DHT22;28750;59.842;17.584;2022-12-07T01:38:44;-6.10;99.90
43143;DHT22;28750;59.842;17.584;2022-12-07T01:41:12;-6.00;99.90
43143;DHT22;28750;59.842;17.584;2022-12-07T01:44:12;-6.00;99.90
43143;DHT22;28750;59.842;17.584;2022-12-07T01:46:40;-6.00;99.90
43143;DHT22;28750;59.842;17.584;2022-12-07T01:49:12;-6.00;99.90
43143;DHT22;28750;59.842;17.584;2022-12-07T01:51:42;-5.90;99.90
43143;DHT22;28750;59.842;17.584;2022-12-07T01:54:11;-6.00;99.90
43143;DHT22;28750;59.842;17.584;2022-12-07T01:56:40;-5.90;99.90
43143;DHT22;28750;59.842;17.584;2022-12-07T01:59:09;-5.90;99.90
43143;DHT22;28750;59.842;17.584;2022-12-07T02:01:36;-5.80;99.90
43143;DHT22;28750;59.842;17.584;2022-12-07T02:04:03;-5.90;99.90
43143;DHT22;28750;59.842;17.584;2022-12-07T02:06:31;-5.80;99.90
43143;DHT22;28750;59.842;17.584;2022-12-07T02:08:58;-5.90;99.90
43143;DHT22;28750;59.842;17.584;2022-12-07T02:11:25;-5.80;99.90
43143;DHT22;28750;59.842;17.584;2022-12-07T02:13:52;-5.90;99.90
43143;DHT22;28750;59.842;17.584;2022-12-07T02:19:39;-5.70;99.90
43143;DHT22;28750;59.842;17.584;2022-12-07T02:25:28;-6.10;99.90
43143;DHT22;28750;59.842;17.584;2022-12-07T02:28:07;-6.60;99.90
43143;DHT22;28750;59.842;17.584;2022-12-07T02:30:40;-6.60;99.90
43143;DHT22;28750;59.842;17.584;2022-12-07T02:33:18;-6.50;99.90
43143;DHT22;28750;59.842;17.584;2022-12-07T02:36:13;-6.40;99.90
43143;DHT22;28750;59.842;17.584;2022-12-07T02:38:58;-6.30;99.90
43143;DHT22;28750;59.842;17.584;2022-12-07T02:41:29;-6.30;99.90
43143;DHT22;28750;59.842;17.584;2022-12-07T02:44:01;-6.30;99.90
43143;DHT22;28750;59.842;17.584;2022-12-07T02:46:41;-6.20;99.90
43143;DHT22;28750;59.842;17.584;2022-12-07T02:49:09;-6.10;99.90
43143;DHT22;28750;59.842;17.584;2022-12-07T02:51:43;-6.00;99.90
43143;DHT22;28750;59.842;17.584;2022-12-07T02:54:13;-5.80;99.90
43143;DHT22;28750;59.842;17.584;2022-12-07T02:56:50;-5.70;99.90
43143;DHT22;28750;59.842;17.584;2022-12-07T03:07:11;-6.30;99.90
43143;DHT22;28750;59.842;17.584;2022-12-07T03:15:31;-5.90;99.90
43143;DHT22;28750;59.842;17.584;2022-12-07T03:18:01;-5.90;99.90
43143;DHT22;28750;59.842;17.584;2022-12-07T03:20:29;-5.80;99.90
43143;DHT22;28750;59.842;17.584;2022-12-07T03:22:57;-5.80;99.90
43143;DHT22;28750;59.842;17.584;2022-12-07T03:25:26;-6.20;99.90
43143;DHT22;28750;59.842;17.584;2022-12-07T03:27:57;-6.30;99.90
43143;DHT22;28750;59.842;17.584;2022-12-07T03:30:27;-6.20;99.90
43143;DHT22;28750;59.842;17.584;2022-12-07T03:33:05;-6.30;99.90
43143;DHT22;28750;59.842;17.584;2022-12-07T03:35:51;-6.30;99.90
43143;DHT22;28750;59.842;17.584;2022-12-07T03:38:23;-6.20;99.90
43143;DHT22;28750;59.842;17.584;2022-12-07T03:41:06;-6.00;99.90
43143;DHT22;28750;59.842;17.584;2022-12-07T03:43:36;-5.90;99.90
43143;DHT22;28750;59.842;17.584;2022-12-07T03:48:45;-5.80;99.90
43143;DHT22;28750;59.842;17.584;2022-12-07T03:51:20;-5.80;99.90
43143;DHT22;28750;59.842;17.584;2022-12-07T03:53:58;-5.80;99.90
43143;DHT22;28750;59.842;17.584;2022-12-07T03:56:28;-5.80;99.90
43143;DHT22;28750;59.842;17.584;2022-12-07T03:58:55;-5.80;99.90
43143;DHT22;28750;59.842;17.584;2022-12-07T04:01:23;-5.80;99.90
43143;DHT22;28750;59.842;17.584;2022-12-07T04:03:50;-5.60;99.90
43143;DHT22;28750;59.842;17.584;2022-12-07T04:06:17;-5.60;99.90
43143;DHT22;28750;59.842;17.584;2022-12-07T04:08:44;-5.60;99.90
43143;DHT22;28750;59.842;17.584;2022-12-07T04:11:11;-5.60;99.90
43143;DHT22;28750;59.842;17.584;2022-12-07T04:13:38;-5.60;99.90
43143;DHT22;28750;59.842;17.584;2022-12-07T04:16:18;-5.50;99.90
43143;DHT22;28750;59.842;17.584;2022-12-07T04:18:45;-5.60;99.90
43143;DHT22;28750;59.842;17.584;2022-12-07T04:21:12;-5.50;99.90
43143;DHT22;28750;59.842;17.584;2022-12-07T04:23:39;-5.50;99.90
43143;DHT22;28750;59.842;17.584;2022-12-07T04:26:06;-5.50;99.90
43143;DHT22;28750;59.842;17.584;2022-12-07T04:28:33;-5.50;99.90
43143;DHT22;28750;59.842;17.584;2022-12-07T04:31:00;-5.60;99.90
43143;DHT22;28750;59.842;17.584;2022-12-07T04:33:27;-5.50;99.90
43143;DHT22;28750;59.842;17.584;2022-12-07T04:35:54;-5.40;99.90
43143;DHT22;28750;59.842;17.584;2022-12-07T04:38:21;-5.60;99.90
43143;DHT22;28750;59.842;17.584;2022-12-07T04:40:48;-5.50;99.90
43143;DHT22;28750;59.842;17.584;2022-12-07T04:43:14;-5.50;99.90
43143;DHT22;28750;59.842;17.584;2022-12-07T04:45:46;-5.50;99.90
43143;DHT22;28750;59.842;17.584;2022-12-07T04:48:14;-5.60;99.90
43143;DHT22;28750;59.842;17.584;2022-12-07T04:50:41;-5.60;99.90
43143;DHT22;28750;59.842;17.584;2022-12-07T04:53:08;-5.60;99.90
43143;DHT22;28750;59.842;17.584;2022-12-07T04:55:34;-5.60;99.90
43143;DHT22;28750;59.842;17.584;2022-12-07T04:58:01;-5.70;99.90
43143;DHT22;28750;59.842;17.584;2022-12-07T05:00:28;-5.70;99.90
43143;DHT22;28750;59.842;17.584;2022-12-07T05:02:55;-5.80;99.90
43143;DHT22;28750;59.842;17.584;2022-12-07T05:05:22;-5.80;99.90
43143;DHT22;28750;59.842;17.584;2022-12-07T05:07:50;-5.80;99.90
43143;DHT22;28750;59.842;17.584;2022-12-07T05:10:17;-5.80;99.90
43143;DHT22;28750;59.842;17.584;2022-12-07T05:12:44;-5.80;99.90
43143;DHT22;28750;59.842;17.584;2022-12-07T05:15:12;-5.90;99.90
43143;DHT22;28750;59.842;17.584;2022-12-07T05:17:39;-5.90;99.90
43143;DHT22;28750;59.842;17.584;2022-12-07T05:20:06;-5.90;99.90
43143;DHT22;28750;59.842;17.584;2022-12-07T05:22:33;-6.00;99.90
43143;DHT22;28750;59.842;17.584;2022-12-07T05:25:00;-5.90;99.90
43143;DHT22;28750;59.842;17.584;2022-12-07T05:27:27;-5.80;99.90
43143;DHT22;28750;59.842;17.584;2022-12-07T05:29:54;-5.80;99.90
43143;DHT22;28750;59.842;17.584;2022-12-07T05:32:21;-5.80;99.90
43143;DHT22;28750;59.842;17.584;2022-12-07T05:34:48;-5.90;99.90
43143;DHT22;28750;59.842;17.584;2022-12-07T05:37:15;-5.90;99.90
43143;DHT22;28750;59.842;17.584;2022-12-07T05:39:42;-5.90;99.90
43143;DHT22;28750;59.842;17.584;2022-12-07T05:42:10;-5.90;99.90
43143;DHT22;28750;59.842;17.584;2022-12-07T05:44:40;-6.00;99.90
43143;DHT22;28750;59.842;17.584;2022-12-07T05:47:07;-6.00;99.90
43143;DHT22;28750;59.842;17.584;2022-12-07T05:49:34;-6.00;99.90
43143;DHT22;28750;59.842;17.584;2022-12-07T05:52:02;-6.10;99.90
43143;DHT22;28750;59.842;17.584;2022-12-07T05:54:29;-6.10;99.90
43143;DHT22;28750;59.842;17.584;2022-12-07T05:56:56;-6.30;99.90
43143;DHT22;28750;59.842;17.584;2022-12-07T05:59:23;-6.30;99.90
43143;DHT22;28750;59.842;17.584;2022-12-07T06:01:53;-6.30;99.90
43143;DHT22;28750;59.842;17.584;2022-12-07T06:04:21;-6.40;99.90
43143;DHT22;28750;59.842;17.584;2022-12-07T06:06:48;-6.50;99.90
43143;DHT22;28750;59.842;17.584;2022-12-07T06:09:16;-6.50;99.90
43143;DHT22;28750;59.842;17.584;2022-12-07T06:11:43;-6.50;99.90
43143;DHT22;28750;59.842;17.584;2022-12-07T06:14:28;-6.60;99.90
43143;DHT22;28750;59.842;17.584;2022-12-07T06:16:55;-6.50;99.90
43143;DHT22;28750;59.842;17.584;2022-12-07T06:19:22;-6.50;99.90
43143;DHT22;28750;59.842;17.584;2022-12-07T06:21:48;-6.40;99.90
43143;DHT22;28750;59.842;17.584;2022-12-07T06:24:16;-6.50;99.90
43143;DHT22;28750;59.842;17.584;2022-12-07T06:26:44;-6.50;99.90
43143;DHT22;28750;59.842;17.584;2022-12-07T06:29:11;-6.60;99.90
43143;DHT22;28750;59.842;17.584;2022-12-07T06:31:38;-6.60;99.90
43143;DHT22;28750;59.842;17.584;2022-12-07T06:34:09;-6.60;99.90
43143;DHT22;28750;59.842;17.584;2022-12-07T06:36:36;-6.70;99.90
43143;DHT22;28750;59.842;17.584;2022-12-07T06:39:04;-6.70;99.90
43143;DHT22;28750;59.842;17.584;2022-12-07T06:41:32;-6.70;99.90
43143;DHT22;28750;59.842;17.584;2022-12-07T06:43:58;-6.70;99.90
43143;DHT22;28750;59.842;17.584;2022-12-07T06:46:25;-6.70;99.90
43143;DHT22;28750;59.842;17.584;2022-12-07T06:48:52;-6.70;99.90
43143;DHT22;28750;59.842;17.584;2022-12-07T06:51:19;-6.70;99.90
43143;DHT22;28750;59.842;17.584;2022-12-07T06:53:46;-6.60;99.90
43143;DHT22;28750;59.842;17.584;2022-12-07T06:56:13;-6.60;99.90
43143;DHT22;28750;59.842;17.584;2022-12-07T06:58:40;-6.60;99.90
43143;DHT22;28750;59.842;17.584;2022-12-07T07:01:14;-6.60;99.90
43143;DHT22;28750;59.842;17.584;2022-12-07T07:03:42;-6.50;99.90
43143;DHT22;28750;59.842;17.584;2022-12-07T07:06:09;-6.50;99.90
43143;DHT22;28750;59.842;17.584;2022-12-07T07:08:37;-6.60;99.90
43143;DHT22;28750;59.842;17.584;2022-12-07T07:11:04;-6.70;99.90
43143;DHT22;28750;59.842;17.584;2022-12-07T07:13:31;-6.80;99.90
43143;DHT22;28750;59.842;17.584;2022-12-07T07:15:58;-6.90;99.90
43143;DHT22;28750;59.842;17.584;2022-12-07T07:18:26;-6.80;99.90
43143;DHT22;28750;59.842;17.584;2022-12-07T07:20:53;-6.80;99.90
43143;DHT22;28750;59.842;17.584;2022-12-07T07:23:21;-6.70;99.90
43143;DHT22;28750;59.842;17.584;2022-12-07T07:25:48;-6.70;99.90
43143;DHT22;28750;59.842;17.584;2022-12-07T07:28:16;-6.60;99.90
43143;DHT22;28750;59.842;17.584;2022-12-07T07:30:43;-6.80;99.90
43143;DHT22;28750;59.842;17.584;2022-12-07T07:33:10;-6.70;99.90
43143;DHT22;28750;59.842;17.584;2022-12-07T07:35:38;-6.60;99.90
43143;DHT22;28750;59.842;17.584;2022-12-07T07:38:06;-6.60;99.90
43143;DHT22;28750;59.842;17.584;2022-12-07T07:40:33;-6.50;99.90
43143;DHT22;28750;59.842;17.584;2022-12-07T07:43:00;-6.60;99.90
43143;DHT22;28750;59.842;17.584;2022-12-07T07:45:27;-6.70;99.90
43143;DHT22;28750;59.842;17.584;2022-12-07T07:47:54;-6.60;99.90
43143;DHT22;28750;59.842;17.584;2022-12-07T07:50:21;-6.50;99.90
43143;DHT22;28750;59.842;17.584;2022-12-07T07:52:48;-6.50;99.90
43143;DHT22;28750;59.842;17.584;2022-12-07T07:55:15;-6.40;99.90
43143;DHT22;28750;59.842;17.584;2022-12-07T07:57:42;-6.40;99.90
43143;DHT22;28750;59.842;17.584;2022-12-07T08:00:12;-6.40;99.90
43143;DHT22;28750;59.842;17.584;2022-12-07T08:02:39;-6.50;99.90
43143;DHT22;28750;59.842;17.584;2022-12-07T08:05:08;-6.50;99.90
43143;DHT22;28750;59.842;17.584;2022-12-07T08:07:35;-6.40;99.90
43143;DHT22;28750;59.842;17.584;2022-12-07T08:10:02;-6.40;99.90
43143;DHT22;28750;59.842;17.584;2022-12-07T08:12:29;-6.30;99.90
43143;DHT22;28750;59.842;17.584;2022-12-07T08:14:57;-6.30;99.90
43143;DHT22;28750;59.842;17.584;2022-12-07T08:17:24;-6.30;99.90
43143;DHT22;28750;59.842;17.584;2022-12-07T08:19:51;-6.30;99.90
43143;DHT22;28750;59.842;17.584;2022-12-07T08:22:17;-6.40;99.90
43143;DHT22;28750;59.842;17.584;2022-12-07T08:24:44;-6.30;99.90
43143;DHT22;28750;59.842;17.584;2022-12-07T08:27:11;-6.40;99.90
43143;DHT22;28750;59.842;17.584;2022-12-07T08:29:38;-6.30;99.90
43143;DHT22;28750;59.842;17.584;2022-12-07T08:32:05;-6.30;99.90
43143;DHT22;28750;59.842;17.584;2022-12-07T08:34:32;-6.40;99.90
43143;DHT22;28750;59.842;17.584;2022-12-07T08:36:59;-6.40;99.90
43143;DHT22;28750;59.842;17.584;2022-12-07T08:39:25;-6.40;99.90
43143;DHT22;28750;59.842;17.584;2022-12-07T08:41:52;-6.40;99.90
43143;DHT22;28750;59.842;17.584;2022-12-07T08:44:19;-6.30;99.90
43143;DHT22;28750;59.842;17.584;2022-12-07T08:46:51;-6.30;99.90
43143;DHT22;28750;59.842;17.584;2022-12-07T08:49:43;-6.40;99.90
43143;DHT22;28750;59.842;17.584;2022-12-07T08:52:07;-6.30;99.90
43143;DHT22;28750;59.842;17.584;2022-12-07T08:54:36;-6.30;99.90
43143;DHT22;28750;59.842;17.584;2022-12-07T08:57:05;-6.30;99.90
43143;DHT22;28750;59.842;17.584;2022-12-07T08:59:34;-6.30;99.90
43143;DHT22;28750;59.842;17.584;2022-12-07T09:02:03;-6.10;99.90
43143;DHT22;28750;59.842;17.584;2022-12-07T09:04:30;-6.10;99.90
43143;DHT22;28750;59.842;17.584;2022-12-07T09:06:57;-5.80;99.90
43143;DHT22;28750;59.842;17.584;2022-12-07T09:09:24;-5.80;99.90
43143;DHT22;28750;59.842;17.584;2022-12-07T09:11:51;-6.00;99.90
43143;DHT22;28750;59.842;17.584;2022-12-07T09:14:18;-6.00;99.90
43143;DHT22;28750;59.842;17.584;2022-12-07T09:16:44;-6.10;99.90
43143;DHT22;28750;59.842;17.584;2022-12-07T09:19:11;-6.10;99.90
43143;DHT22;28750;59.842;17.584;2022-12-07T09:21:38;-6.10;99.90
43143;DHT22;28750;59.842;17.584;2022-12-07T09:24:05;-6.10;99.90
43143;DHT22;28750;59.842;17.584;2022-12-07T09:26:32;-6.10;99.90
43143;DHT22;28750;59.842;17.584;2022-12-07T09:29:02;-6.00;99.90
43143;DHT22;28750;59.842;17.584;2022-12-07T09:31:29;-6.10;99.90
43143;DHT22;28750;59.842;17.584;2022-12-07T09:34:00;-6.00;99.90
43143;DHT22;28750;59.842;17.584;2022-12-07T09:36:28;-6.00;99.90
43143;DHT22;28750;59.842;17.584;2022-12-07T09:38:55;-6.10;99.90
43143;DHT22;28750;59.842;17.584;2022-12-07T09:41:23;-6.20;99.90
43143;DHT22;28750;59.842;17.584;2022-12-07T09:43:51;-6.20;99.90
43143;DHT22;28750;59.842;17.584;2022-12-07T09:46:20;-6.20;99.90
43143;DHT22;28750;59.842;17.584;2022-12-07T09:48:49;-6.10;99.90
43143;DHT22;28750;59.842;17.584;2022-12-07T09:51:18;-6.00;99.90
43143;DHT22;28750;59.842;17.584;2022-12-07T09:53:47;-6.00;99.90
43143;DHT22;28750;59.842;17.584;2022-12-07T09:56:16;-6.00;99.90
43143;DHT22;28750;59.842;17.584;2022-12-07T09:58:44;-6.10;99.90
43143;DHT22;28750;59.842;17.584;2022-12-07T10:01:20;-6.10;99.90
43143;DHT22;28750;59.842;17.584;2022-12-07T10:03:53;-6.30;99.90
43143;DHT22;28750;59.842;17.584;2022-12-07T10:06:20;-6.20;99.90
43143;DHT22;28750;59.842;17.584;2022-12-07T10:08:48;-6.10;99.90
43143;DHT22;28750;59.842;17.584;2022-12-07T10:11:15;-6.00;99.90
43143;DHT22;28750;59.842;17.584;2022-12-07T10:13:47;-5.90;99.90
43143;DHT22;28750;59.842;17.584;2022-12-07T10:18:52;-6.00;99.90
43143;DHT22;28750;59.842;17.584;2022-12-07T10:21:22;-6.00;99.90
43143;DHT22;28750;59.842;17.584;2022-12-07T10:26:38;-6.00;99.90
43143;DHT22;28750;59.842;17.584;2022-12-07T10:29:17;-6.00;99.90
43143;DHT22;28750;59.842;17.584;2022-12-07T10:31:47;-6.00;99.90
43143;DHT22;28750;59.842;17.584;2022-12-07T10:34:25;-6.00;99.90
43143;DHT22;28750;59.842;17.584;2022-12-07T10:36:53;-6.00;99.90
43143;DHT22;28750;59.842;17.584;2022-12-07T10:39:58;-5.90;99.90
43143;DHT22;28750;59.842;17.584;2022-12-07T10:42:26;-5.90;99.90
43143;DHT22;28750;59.842;17.584;2022-12-07T10:48:04;-6.00;99.90
43143;DHT22;28750;59.842;17.584;2022-12-07T11:01:52;-5.80;99.90
43143;DHT22;28750;59.842;17.584;2022-12-07T11:07:16;-5.90;99.90
43143;DHT22;28750;59.842;17.584;2022-12-07T11:25:59;-5.80;99.90
43143;DHT22;28750;59.842;17.584;2022-12-07T11:34:24;-5.60;99.90
43143;DHT22;28750;59.842;17.584;2022-12-07T11:36:56;-5.70;99.90
43143;DHT22;28750;59.842;17.584;2022-12-07T11:39:50;-5.80;99.90
43143;DHT22;28750;59.842;17.584;2022-12-07T11:45:32;-5.90;99.90
43143;DHT22;28750;59.842;17.584;2022-12-07T11:48:03;-5.90;99.90
43143;DHT22;28750;59.842;17.584;2022-12-07T11:50:52;-5.90;99.90
43143;DHT22;28750;59.842;17.584;2022-12-07T12:01:52;-6.00;99.90
43143;DHT22;28750;59.842;17.584;2022-12-07T12:07:14;-5.90;99.90
43143;DHT22;28750;59.842;17.584;2022-12-07T12:13:03;-5.80;99.90
43143;DHT22;28750;59.842;17.584;2022-12-07T12:15:59;-5.70;99.90
43143;DHT22;28750;59.842;17.584;2022-12-07T12:21:12;-5.60;99.90
43143;DHT22;28750;59.842;17.584;2022-12-07T12:23:44;-5.70;99.90
43143;DHT22;28750;59.842;17.584;2022-12-07T12:26:23;-5.60;99.90
43143;DHT22;28750;59.842;17.584;2022-12-07T12:28:59;-5.70;99.90
43143;DHT22;28750;59.842;17.584;2022-12-07T12:34:29;-5.60;99.90
43143;DHT22;28750;59.842;17.584;2022-12-07T12:36:48;-5.70;99.90
43143;DHT22;28750;59.842;17.584;2022-12-07T12:39:17;-5.70;99.90
43143;DHT22;28750;59.842;17.584;2022-12-07T12:50:22;-5.80;99.90
43143;DHT22;28750;59.842;17.584;2022-12-07T12:53:16;-5.80;99.90
43143;DHT22;28750;59.842;17.584;2022-12-07T12:56:30;-5.80;99.90
43143;DHT22;28750;59.842;17.584;2022-12-07T12:59:55;-5.80;99.90
43143;DHT22;28750;59.842;17.584;2022-12-07T13:02:29;-5.90;99.90
43143;DHT22;28750;59.842;17.584;2022-12-07T13:07:49;-6.00;99.90
43143;DHT22;28750;59.842;17.584;2022-12-07T13:23:54;-6.00;99.90
43143;DHT22;28750;59.842;17.584;2022-12-07T13:31:55;-6.10;99.90
43143;DHT22;28750;59.842;17.584;2022-12-07T13:34:35;-6.10;99.90
43143;DHT22;28750;59.842;17.584;2022-12-07T13:39:51;-6.20;99.90
43143;DHT22;28750;59.842;17.584;2022-12-07T13:42:29;-6.20;99.90
43143;DHT22;28750;59.842;17.584;2022-12-07T13:44:58;-6.20;99.90
43143;DHT22;28750;59.842;17.584;2022-12-07T13:47:49;-6.20;99.90
43143;DHT22;28750;59.842;17.584;2022-12-07T13:50:31;-6.20;99.90
43143;DHT22;28750;59.842;17.584;2022-12-07T13:53:00;-6.30;99.90
43143;DHT22;28750;59.842;17.584;2022-12-07T13:55:28;-6.30;97.30
43143;DHT22;28750;59.842;17.584;2022-12-07T13:57:56;-6.30;96.10
43143;DHT22;28750;59.842;17.584;2022-12-07T14:00:25;-6.40;99.90
43143;DHT22;28750;59.842;17.584;2022-12-07T14:03:00;-6.40;99.90
43143;DHT22;28750;59.842;17.584;2022-12-07T14:05:30;-6.50;99.90
43143;DHT22;28750;59.842;17.584;2022-12-07T14:08:00;-6.60;99.90
43143;DHT22;28750;59.842;17.584;2022-12-07T14:10:31;-6.60;99.90
43143;DHT22;28750;59.842;17.584;2022-12-07T14:12:59;-6.80;99.90
43143;DHT22;28750;59.842;17.584;2022-12-07T14:15:31;-6.80;99.90
43143;DHT22;28750;59.842;17.584;2022-12-07T14:18:00;-6.80;99.90
43143;DHT22;28750;59.842;17.584;2022-12-07T14:20:37;-6.50;99.90
43143;DHT22;28750;59.842;17.584;2022-12-07T14:23:26;-6.50;99.90
43143;DHT22;28750;59.842;17.584;2022-12-07T14:25:53;-6.50;99.90
43143;DHT22;28750;59.842;17.584;2022-12-07T14:28:29;-6.60;99.90
43143;DHT22;28750;59.842;17.584;2022-12-07T14:30:56;-6.30;99.90
43143;DHT22;28750;59.842;17.584;2022-12-07T14:33:24;-6.70;99.90
43143;DHT22;28750;59.842;17.584;2022-12-07T14:35:52;-7.00;99.90
43143;DHT22;28750;59.842;17.584;2022-12-07T14:38:21;-7.10;99.90
43143;DHT22;28750;59.842;17.584;2022-12-07T14:40:50;-7.10;99.90
43143;DHT22;28750;59.842;17.584;2022-12-07T14:43:19;-7.20;99.90
43143;DHT22;28750;59.842;17.584;2022-12-07T14:45:46;-7.20;99.90
43143;DHT22;28750;59.842;17.584;2022-12-07T14:48:15;-7.20;99.90
43143;DHT22;28750;59.842;17.584;2022-12-07T14:50:44;-7.20;99.90
43143;DHT22;28750;59.842;17.584;2022-12-07T14:53:14;-7.30;99.90
43143;DHT22;28750;59.842;17.584;2022-12-07T14:55:42;-7.20;99.90
43143;DHT22;28750;59.842;17.584;2022-12-07T14:58:14;-7.30;99.90
43143;DHT22;28750;59.842;17.584;2022-12-07T15:00:42;-7.30;99.90
43143;DHT22;28750;59.842;17.584;2022-12-07T15:03:09;-7.40;99.90
43143;DHT22;28750;59.842;17.584;2022-12-07T15:05:36;-7.40;99.90
43143;DHT22;28750;59.842;17.584;2022-12-07T15:08:04;-7.40;99.90
43143;DHT22;28750;59.842;17.584;2022-12-07T15:10:32;-7.50;99.90
43143;DHT22;28750;59.842;17.584;2022-12-07T15:13:04;-7.40;99.90
43143;DHT22;28750;59.842;17.584;2022-12-07T15:15:44;-7.30;99.90
43143;DHT22;28750;59.842;17.584;2022-12-07T15:18:11;-7.30;99.90
43143;DHT22;28750;59.842;17.584;2022-12-07T15:20:38;-7.20;99.90
43143;DHT22;28750;59.842;17.584;2022-12-07T15:23:05;-7.20;99.90
43143;DHT22;28750;59.842;17.584;2022-12-07T15:25:33;-7.20;99.90
43143;DHT22;28750;59.842;17.584;2022-12-07T15:28:00;-7.20;99.90
43143;DHT22;28750;59.842;17.584;2022-12-07T15:30:27;-7.20;99.90
43143;DHT22;28750;59.842;17.584;2022-12-07T15:32:54;-7.30;99.90
43143;DHT22;28750;59.842;17.584;2022-12-07T15:35:21;-7.30;99.90
43143;DHT22;28750;59.842;17.584;2022-12-07T15:37:48;-7.20;99.90
43143;DHT22;28750;59.842;17.584;2022-12-07T15:40:15;-7.20;99.90
43143;DHT22;28750;59.842;17.584;2022-12-07T15:42:42;-7.30;99.90
43143;DHT22;28750;59.842;17.584;2022-12-07T15:45:09;-7.40;99.90
43143;DHT22;28750;59.842;17.584;2022-12-07T15:47:38;-7.40;99.90
43143;DHT22;28750;59.842;17.584;2022-12-07T15:50:09;-7.40;99.90
43143;DHT22;28750;59.842;17.584;2022-12-07T15:52:37;-7.40;99.90
43143;DHT22;28750;59.842;17.584;2022-12-07T15:55:04;-7.40;99.90
43143;DHT22;28750;59.842;17.584;2022-12-07T15:57:33;-7.60;99.90
43143;DHT22;28750;59.842;17.584;2022-12-07T16:00:00;-7.70;99.90
43143;DHT22;28750;59.842;17.584;2022-12-07T16:02:27;-7.70;99.90
43143;DHT22;28750;59.842;17.584;2022-12-07T16:04:54;-7.60;99.90
43143;DHT22;28750;59.842;17.584;2022-12-07T16:07:22;-7.60;99.90
43143;DHT22;28750;59.842;17.584;2022-12-07T16:09:49;-7.60;99.90
43143;DHT22;28750;59.842;17.584;2022-12-07T16:12:16;-7.50;99.90
43143;DHT22;28750;59.842;17.584;2022-12-07T16:14:43;-7.50;99.90
43143;DHT22;28750;59.842;17.584;2022-12-07T16:17:10;-7.50;99.90
43143;DHT22;28750;59.842;17.584;2022-12-07T16:19:37;-7.50;99.90
43143;DHT22;28750;59.842;17.584;2022-12-07T16:22:04;-7.50;99.90
43143;DHT22;28750;59.842;17.584;2022-12-07T16:24:31;-7.50;99.90
43143;DHT22;28750;59.842;17.584;2022-12-07T16:26:58;-7.50;99.90
43143;DHT22;28750;59.842;17.584;2022-12-07T16:29:25;-7.50;99.90
43143;DHT22;28750;59.842;17.584;2022-12-07T16:31:52;-7.50;99.90
43143;DHT22;28750;59.842;17.584;2022-12-07T16:34:22;-7.50;99.90
43143;DHT22;28750;59.842;17.584;2022-12-07T16:36:48;-7.60;99.90
43143;DHT22;28750;59.842;17.584;2022-12-07T16:39:15;-7.60;99.90
43143;DHT22;28750;59.842;17.584;2022-12-07T16:41:43;-7.60;99.90
43143;DHT22;28750;59.842;17.584;2022-12-07T16:44:11;-7.50;99.90
43143;DHT22;28750;59.842;17.584;2022-12-07T16:46:39;-7.60;99.90
43143;DHT22;28750;59.842;17.584;2022-12-07T16:49:06;-7.60;99.90
43143;DHT22;28750;59.842;17.584;2022-12-07T16:51:33;-7.60;99.90
43143;DHT22;28750;59.842;17.584;2022-12-07T16:54:02;-7.60;99.90
43143;DHT22;28750;59.842;17.584;2022-12-07T16:56:29;-7.70;99.90
43143;DHT22;28750;59.842;17.584;2022-12-07T16:58:58;-7.70;99.90
43143;DHT22;28750;59.842;17.584;2022-12-07T17:01:25;-7.70;99.90
43143;DHT22;28750;59.842;17.584;2022-12-07T17:03:53;-7.70;99.90
43143;DHT22;28750;59.842;17.584;2022-12-07T17:06:23;-7.80;99.90
43143;DHT22;28750;59.842;17.584;2022-12-07T17:08:51;-8.00;99.90
43143;DHT22;28750;59.842;17.584;2022-12-07T17:11:21;-8.10;99.90
43143;DHT22;28750;59.842;17.584;2022-12-07T17:13:48;-8.10;99.90
43143;DHT22;28750;59.842;17.584;2022-12-07T17:16:33;-8.10;99.90
43143;DHT22;28750;59.842;17.584;2022-12-07T17:19:09;-8.20;99.90
43143;DHT22;28750;59.842;17.584;2022-12-07T17:21:37;-8.20;99.90
43143;DHT22;28750;59.842;17.584;2022-12-07T17:24:06;-8.30;99.90
43143;DHT22;28750;59.842;17.584;2022-12-07T17:26:33;-8.30;99.90
43143;DHT22;28750;59.842;17.584;2022-12-07T17:29:00;-8.10;99.90
43143;DHT22;28750;59.842;17.584;2022-12-07T17:31:27;-7.90;99.90
43143;DHT22;28750;59.842;17.584;2022-12-07T17:33:54;-7.90;99.90
43143;DHT22;28750;59.842;17.584;2022-12-07T17:36:23;-8.00;99.90